KPKB/PKB METAR and TAF weather

Enter ICAO airport designator
Station Type Date Time Source
KPKB METAR 2020/01/24 08:53 UTC NOAA

KPKB 240853Z AUTO 11004KT 9SM -RA OVC060 03/M01 A3010 RMK AO2 RAB14 SLP197 P0001 60001 T00331011 56006


Station Type Date Time Source
KPKB Decoded METAR 2020/01/24 08:53 UTC NOAA

MID-OHIO VALLEY RGNL AIRPORT, WV, United States (KPKB) 39-20N 81-27W
Jan 24, 2020 - 03:53 AM EST / 2020.01.24 0853 UTC
Wind: from the ESE (110 degrees) at 5 MPH (4 KT):0
Visibility: 9 mile(s):0
Sky conditions: overcast
Weather: light rain
Precipitation last hour: 0.01 inches
Temperature: 37.9 F (3.3 C)
Dew Point: 30.0 F (-1.1 C)
Relative Humidity: 72%
Pressure (altimeter): 30.1 in. Hg (1019 hPa)
Pressure tendency: 0.02 inches (0.6 hPa) lower than three hours ago
ob: KPKB 240853Z AUTO 11004KT 9SM -RA OVC060 03/M01 A3010 RMK AO2 RAB14 SLP197 P0001 60001 T00331011 56006
cycle: 9

Station Type Date Time Source
KPKB TAF 2020/01/24 09:58 UTC NOAA

TAF
AMD KPKB 240858Z 2409/2506 00000KT P6SM OVC080
FM241100 VRB03KT P6SM OVC045 WS011/16035KT
FM241400 VRB03KT P6SM -RA OVC045 WS011/15035KT
FM241500 13010KT 6SM -RA OVC045
FM242300 13011KT 4SM +RA OVC035
FM250000 00000KT 5SM SHRA OVC019

Example: see airport list